createdAt,value
2016-07-30T00:00:04.412Z,18.8
2016-07-30T00:00:14.405Z,18.7
2016-07-30T00:00:24.402Z,18.9
2016-07-30T00:00:34.401Z,18.7
2016-07-30T00:00:44.393Z,18.8
2016-07-30T00:00:54.389Z,18.8
2016-07-30T00:01:04.384Z,18.8
2016-07-30T00:01:14.380Z,18.7
2016-07-30T00:01:24.374Z,18.9
2016-07-30T00:01:34.369Z,18.9
2016-07-30T00:01:44.364Z,18.9
2016-07-30T00:01:54.360Z,18.8
2016-07-30T00:02:04.356Z,18.8
2016-07-30T00:02:14.351Z,18.8
2016-07-30T00:02:24.346Z,18.8
2016-07-30T00:02:34.342Z,18.9
2016-07-30T00:02:44.338Z,18.7
2016-07-30T00:02:54.333Z,18.8
2016-07-30T00:03:04.329Z,18.8
2016-07-30T00:03:14.323Z,18.8
2016-07-30T00:03:24.318Z,18.9
2016-07-30T00:03:34.313Z,18.9
2016-07-30T00:03:44.309Z,18.8
2016-07-30T00:03:54.305Z,18.9
2016-07-30T00:04:04.301Z,18.8
2016-07-30T00:04:14.296Z,18.9
2016-07-30T00:04:24.292Z,18.8
2016-07-30T00:04:34.289Z,18.8
2016-07-30T00:04:44.282Z,18.8
2016-07-30T00:04:54.278Z,18.8
2016-07-30T00:05:04.273Z,18.8
2016-07-30T00:05:14.269Z,18.8
2016-07-30T00:05:24.263Z,18.8
2016-07-30T00:05:34.260Z,18.7
2016-07-30T00:05:44.255Z,18.7
2016-07-30T00:05:54.250Z,18.7
2016-07-30T00:06:04.246Z,18.9
2016-07-30T00:06:14.240Z,18.8
2016-07-30T00:06:24.235Z,18.8
2016-07-30T00:06:34.231Z,18.8
2016-07-30T00:06:44.228Z,18.7
2016-07-30T00:06:54.223Z,18.8
2016-07-30T00:07:04.218Z,18.7
2016-07-30T00:07:14.213Z,18.8
2016-07-30T00:07:24.208Z,18.7
2016-07-30T00:07:34.204Z,18.8
2016-07-30T00:07:44.199Z,18.9
2016-07-30T00:07:54.195Z,18.8
2016-07-30T00:08:04.191Z,18.8
2016-07-30T00:08:14.184Z,18.8
2016-07-30T00:08:24.180Z,18.8
2016-07-30T00:08:34.175Z,18.9
2016-07-30T00:08:44.171Z,18.8
2016-07-30T00:08:54.167Z,18.8
2016-07-30T00:09:04.162Z,18.7
2016-07-30T00:09:14.158Z,18.9
2016-07-30T00:09:24.154Z,18.8
2016-07-30T00:09:34.148Z,18.9
2016-07-30T00:09:44.144Z,18.9
2016-07-30T00:09:54.139Z,18.8
2016-07-30T00:10:04.135Z,18.9
2016-07-30T00:10:14.130Z,18.9
2016-07-30T00:10:24.126Z,18.9
2016-07-30T00:10:34.120Z,18.8
2016-07-30T00:10:44.116Z,18.8
2016-07-30T00:10:54.111Z,18.8
2016-07-30T00:11:04.107Z,18.8
2016-07-30T00:11:14.102Z,18.9
2016-07-30T00:11:24.097Z,18.8
2016-07-30T00:11:34.093Z,18.8
2016-07-30T00:11:44.089Z,18.9
2016-07-30T00:11:54.090Z,18.9
2016-07-30T00:12:04.079Z,18.8
2016-07-30T00:12:14.076Z,18.8
2016-07-30T00:12:24.069Z,18.9
2016-07-30T00:12:34.065Z,18.9
2016-07-30T00:12:44.060Z,18.7
2016-07-30T00:12:54.057Z,18.9
2016-07-30T00:13:04.051Z,18.8
2016-07-30T00:13:14.047Z,18.8
2016-07-30T00:13:24.042Z,18.8
2016-07-30T00:13:34.037Z,18.9
2016-07-30T00:13:44.034Z,18.8
2016-07-30T00:13:54.028Z,18.9
2016-07-30T00:14:04.024Z,18.8
2016-07-30T00:14:14.019Z,18.8
2016-07-30T00:14:24.015Z,18.8
2016-07-30T00:14:34.010Z,18.7
2016-07-30T00:14:44.007Z,18.7
2016-07-30T00:14:54.001Z,18.7
2016-07-30T00:15:03.998Z,18.8
2016-07-30T00:15:13.996Z,18.8
2016-07-30T00:15:23.987Z,18.7
2016-07-30T00:15:33.984Z,18.8
2016-07-30T00:15:43.978Z,18.8
2016-07-30T00:15:53.974Z,18.8
2016-07-30T00:16:03.970Z,18.8
2016-07-30T00:16:13.964Z,18.8
2016-07-30T00:16:23.959Z,18.8
2016-07-30T00:16:33.954Z,18.7
2016-07-30T00:16:43.950Z,18.8
2016-07-30T00:16:53.946Z,18.8
2016-07-30T00:17:03.941Z,18.8
2016-07-30T00:17:13.937Z,18.8
2016-07-30T00:17:23.931Z,18.8
2016-07-30T00:17:33.926Z,18.8
2016-07-30T00:17:43.923Z,18.8
2016-07-30T00:17:53.917Z,18.8
2016-07-30T00:18:03.914Z,18.8
2016-07-30T00:18:13.910Z,18.7
2016-07-30T00:18:23.903Z,18.7
2016-07-30T00:18:33.899Z,18.8
2016-07-30T00:18:43.895Z,18.8
2016-07-30T00:18:53.891Z,18.8
2016-07-30T00:19:03.886Z,18.7
2016-07-30T00:19:13.880Z,18.8
2016-07-30T00:19:23.877Z,18.7
2016-07-30T00:19:33.873Z,18.7
2016-07-30T00:19:43.868Z,18.8
2016-07-30T00:19:53.863Z,18.8
2016-07-30T00:20:03.858Z,18.8
2016-07-30T00:20:13.854Z,18.7
2016-07-30T00:20:23.849Z,18.7
2016-07-30T00:20:33.843Z,18.8
2016-07-30T00:20:43.839Z,18.7
2016-07-30T00:20:53.835Z,18.7
2016-07-30T00:21:03.828Z,18.8
2016-07-30T00:21:13.826Z,18.8
2016-07-30T00:21:23.821Z,18.7
2016-07-30T00:21:33.816Z,18.8
2016-07-30T00:21:43.812Z,18.8
2016-07-30T00:21:53.806Z,18.7
2016-07-30T00:22:03.802Z,18.7
2016-07-30T00:22:13.798Z,18.7
2016-07-30T00:22:23.793Z,18.8
2016-07-30T00:22:33.790Z,18.7
2016-07-30T00:22:43.784Z,18.7
2016-07-30T00:22:53.780Z,18.7
2016-07-30T00:23:03.776Z,18.7
2016-07-30T00:23:13.770Z,18.7
2016-07-30T00:23:23.766Z,18.8
2016-07-30T00:23:33.761Z,18.7
2016-07-30T00:23:43.757Z,18.7
2016-07-30T00:23:53.752Z,18.8
2016-07-30T00:24:03.747Z,18.7
2016-07-30T00:24:13.743Z,18.7
2016-07-30T00:24:23.740Z,18.7
2016-07-30T00:24:33.733Z,18.8
2016-07-30T00:24:43.730Z,18.7
2016-07-30T00:24:53.724Z,18.7
2016-07-30T00:25:03.719Z,18.7
2016-07-30T00:25:13.715Z,18.7
2016-07-30T00:25:23.710Z,18.7
2016-07-30T00:25:33.706Z,18.7
2016-07-30T00:25:43.702Z,18.8
2016-07-30T00:25:53.696Z,18.7
2016-07-30T00:26:03.691Z,18.7
2016-07-30T00:26:13.688Z,18.7
2016-07-30T00:26:23.682Z,18.7
2016-07-30T00:26:33.678Z,18.8
2016-07-30T00:26:43.673Z,18.7
2016-07-30T00:26:53.668Z,18.7
2016-07-30T00:27:03.671Z,18.7
2016-07-30T00:27:13.659Z,18.7
2016-07-30T00:27:23.655Z,18.7
2016-07-30T00:27:33.650Z,18.7
2016-07-30T00:27:43.646Z,18.7
2016-07-30T00:27:53.641Z,18.7
2016-07-30T00:28:03.638Z,18.7
2016-07-30T00:28:13.633Z,18.7
2016-07-30T00:28:23.627Z,18.7
2016-07-30T00:28:33.623Z,18.7
2016-07-30T00:28:43.619Z,18.7
2016-07-30T00:28:53.613Z,18.8
2016-07-30T00:29:03.609Z,18.7
2016-07-30T00:29:13.603Z,18.7
2016-07-30T00:29:23.600Z,18.7
2016-07-30T00:29:33.595Z,18.7
2016-07-30T00:29:43.589Z,18.7
2016-07-30T00:29:53.585Z,18.7
2016-07-30T00:30:03.581Z,18.7
2016-07-30T00:30:13.576Z,18.7
2016-07-30T00:30:23.570Z,18.7
2016-07-30T00:30:33.566Z,18.8
2016-07-30T00:30:43.565Z,18.7
2016-07-30T00:30:53.557Z,18.7
2016-07-30T00:31:03.553Z,18.7
2016-07-30T00:31:13.548Z,18.7
2016-07-30T00:31:23.547Z,18.7
2016-07-30T00:31:33.539Z,18.7
2016-07-30T00:31:43.535Z,18.7
2016-07-30T00:31:53.529Z,18.7
2016-07-30T00:32:03.525Z,18.7
2016-07-30T00:32:13.522Z,18.7
2016-07-30T00:32:23.516Z,18.7
2016-07-30T00:32:33.511Z,18.7
2016-07-30T00:32:43.508Z,18.7
2016-07-30T00:32:53.501Z,18.7
2016-07-30T00:33:03.497Z,18.7
2016-07-30T00:33:13.492Z,18.7
2016-07-30T00:33:23.488Z,18.7
2016-07-30T00:33:33.482Z,18.8
2016-07-30T00:33:43.481Z,18.7
2016-07-30T00:33:53.473Z,18.7
2016-07-30T00:34:03.471Z,18.7
2016-07-30T00:34:13.465Z,18.7
2016-07-30T00:34:23.460Z,18.7
2016-07-30T00:34:33.454Z,18.7
2016-07-30T00:34:43.451Z,18.7
2016-07-30T00:34:53.445Z,18.7
2016-07-30T00:35:03.442Z,18.7
2016-07-30T00:35:13.437Z,18.7
2016-07-30T00:35:23.432Z,18.7
2016-07-30T00:35:33.428Z,18.7
2016-07-30T00:35:43.423Z,18.7
2016-07-30T00:35:53.418Z,18.7
2016-07-30T00:36:03.415Z,18.7
2016-07-30T00:36:13.410Z,18.6
2016-07-30T00:36:23.404Z,18.7
2016-07-30T00:36:33.400Z,18.7
2016-07-30T00:36:43.396Z,18.7
2016-07-30T00:36:53.391Z,18.7
2016-07-30T00:37:03.386Z,18.7
2016-07-30T00:37:13.381Z,18.7
2016-07-30T00:37:23.378Z,18.6
2016-07-30T00:37:33.372Z,18.7
2016-07-30T00:37:43.368Z,18.7
2016-07-30T00:37:53.364Z,18.8
2016-07-30T00:38:03.359Z,18.6
2016-07-30T00:38:13.353Z,18.7
2016-07-30T00:38:23.348Z,18.7
2016-07-30T00:38:33.343Z,18.7
2016-07-30T00:38:43.341Z,18.7
2016-07-30T00:38:53.336Z,18.6
2016-07-30T00:39:03.331Z,18.7
2016-07-30T00:39:13.326Z,18.8
2016-07-30T00:39:23.321Z,18.7
2016-07-30T00:39:33.316Z,18.7
2016-07-30T00:39:43.312Z,18.7
2016-07-30T00:39:53.307Z,18.7
2016-07-30T00:40:03.301Z,18.6
2016-07-30T00:40:13.298Z,18.6
2016-07-30T00:40:23.294Z,18.6
2016-07-30T00:40:33.288Z,18.7
2016-07-30T00:40:43.285Z,18.6
2016-07-30T00:40:53.280Z,18.6
2016-07-30T00:41:03.275Z,18.6
2016-07-30T00:41:13.271Z,18.7
2016-07-30T00:41:23.267Z,18.7
2016-07-30T00:41:33.261Z,18.7
2016-07-30T00:41:43.257Z,18.6
2016-07-30T00:41:53.251Z,18.7
2016-07-30T00:42:03.247Z,18.7
2016-07-30T00:42:13.243Z,18.7
2016-07-30T00:42:23.238Z,18.7
2016-07-30T00:42:33.234Z,18.7
2016-07-30T00:42:43.230Z,18.7
2016-07-30T00:42:53.223Z,18.7
2016-07-30T00:43:03.219Z,18.7
2016-07-30T00:43:13.214Z,18.7
2016-07-30T00:43:23.210Z,18.7
2016-07-30T00:43:33.205Z,18.6
2016-07-30T00:43:43.200Z,18.6
2016-07-30T00:43:53.196Z,18.6
2016-07-30T00:44:03.192Z,18.7
2016-07-30T00:44:13.187Z,18.6
2016-07-30T00:44:23.183Z,18.6
2016-07-30T00:44:33.176Z,18.7
2016-07-30T00:44:43.173Z,18.6
2016-07-30T00:44:53.169Z,18.6
2016-07-30T00:45:03.163Z,18.6
2016-07-30T00:45:13.159Z,18.6
2016-07-30T00:45:23.156Z,18.7
2016-07-30T00:45:33.149Z,18.6
2016-07-30T00:45:43.146Z,18.6
2016-07-30T00:45:53.141Z,18.7
2016-07-30T00:46:03.137Z,18.6
2016-07-30T00:46:13.131Z,18.6
2016-07-30T00:46:23.126Z,18.7
2016-07-30T00:46:33.122Z,18.6
2016-07-30T00:46:43.118Z,18.6
2016-07-30T00:46:53.111Z,18.6
2016-07-30T00:47:03.108Z,18.6
2016-07-30T00:47:13.103Z,18.6
2016-07-30T00:47:23.099Z,18.6
2016-07-30T00:47:33.094Z,18.7
2016-07-30T00:47:43.089Z,18.7
2016-07-30T00:47:53.084Z,18.7
2016-07-30T00:48:03.080Z,18.6
2016-07-30T00:48:13.075Z,18.6
2016-07-30T00:48:23.071Z,18.6
2016-07-30T00:48:33.066Z,18.7
2016-07-30T00:48:43.062Z,18.6
2016-07-30T00:48:53.057Z,18.6
2016-07-30T00:49:03.052Z,18.6
2016-07-30T00:49:13.050Z,18.6
2016-07-30T00:49:23.044Z,18.7
2016-07-30T00:49:33.038Z,18.6
2016-07-30T00:49:43.033Z,18.6
2016-07-30T00:49:53.028Z,18.6
2016-07-30T00:50:03.025Z,18.6
2016-07-30T00:50:13.021Z,18.6
2016-07-30T00:50:23.015Z,18.6
2016-07-30T00:50:33.010Z,18.6
2016-07-30T00:50:43.007Z,18.6
2016-07-30T00:50:53.003Z,18.6
2016-07-30T00:51:02.996Z,18.6
2016-07-30T00:51:12.992Z,18.6
2016-07-30T00:51:22.987Z,18.6
2016-07-30T00:51:32.982Z,18.6
2016-07-30T00:51:42.978Z,18.6
2016-07-30T00:51:52.975Z,18.7
2016-07-30T00:52:02.970Z,18.6
2016-07-30T00:52:12.964Z,18.7
2016-07-30T00:52:22.960Z,18.6
2016-07-30T00:52:32.954Z,18.6
2016-07-30T00:52:42.950Z,18.7
2016-07-30T00:52:52.946Z,18.6
2016-07-30T00:53:02.940Z,18.6
2016-07-30T00:53:12.937Z,18.6
2016-07-30T00:53:22.932Z,18.6
2016-07-30T00:53:32.926Z,18.7
2016-07-30T00:53:42.922Z,18.5
2016-07-30T00:53:52.918Z,18.6
2016-07-30T00:54:02.914Z,18.5
2016-07-30T00:54:12.909Z,18.6
2016-07-30T00:54:22.905Z,18.6
2016-07-30T00:54:32.899Z,18.6
2016-07-30T00:54:42.895Z,18.7
2016-07-30T00:54:52.891Z,18.6
2016-07-30T00:55:02.887Z,18.6
2016-07-30T00:55:12.880Z,18.6
2016-07-30T00:55:22.877Z,18.5
2016-07-30T00:55:32.872Z,18.6
2016-07-30T00:55:42.867Z,18.6
2016-07-30T00:55:52.862Z,18.6
2016-07-30T00:56:02.858Z,18.6
2016-07-30T00:56:12.852Z,18.6
2016-07-30T00:56:22.848Z,18.5
2016-07-30T00:56:32.843Z,18.6
2016-07-30T00:56:42.843Z,18.5
2016-07-30T00:56:52.835Z,18.6
2016-07-30T00:57:02.830Z,18.6
2016-07-30T00:57:12.825Z,18.6
2016-07-30T00:57:22.825Z,18.5
2016-07-30T00:57:32.817Z,18.6
2016-07-30T00:57:42.811Z,18.6
2016-07-30T00:57:52.805Z,18.5
2016-07-30T00:58:02.803Z,18.5
2016-07-30T00:58:12.797Z,18.6
2016-07-30T00:58:22.793Z,18.6
2016-07-30T00:58:32.789Z,18.6
2016-07-30T00:58:42.783Z,18.6
2016-07-30T00:58:52.780Z,18.5
2016-07-30T00:59:02.774Z,18.6
2016-07-30T00:59:12.769Z,18.6
2016-07-30T00:59:22.765Z,18.6
2016-07-30T00:59:32.760Z,18.6
2016-07-30T00:59:42.755Z,18.6
2016-07-30T00:59:52.751Z,18.6
2016-07-30T01:00:02.746Z,18.5
2016-07-30T01:00:12.742Z,18.5
2016-07-30T01:00:22.736Z,18.6
2016-07-30T01:00:32.732Z,18.5
2016-07-30T01:00:42.727Z,18.5
2016-07-30T01:00:52.723Z,18.6
2016-07-30T01:01:02.718Z,18.6
2016-07-30T01:01:12.714Z,18.6
2016-07-30T01:01:22.711Z,18.6
2016-07-30T01:01:32.704Z,18.6
2016-07-30T01:01:42.700Z,18.6
2016-07-30T01:01:52.695Z,18.6
2016-07-30T01:02:02.691Z,18.6
2016-07-30T01:02:12.686Z,18.5
2016-07-30T01:02:22.681Z,18.6
2016-07-30T01:02:32.676Z,18.6
2016-07-30T01:02:42.672Z,18.6
2016-07-30T01:02:52.668Z,18.5
2016-07-30T01:03:02.663Z,18.6
2016-07-30T01:03:12.658Z,18.6
2016-07-30T01:03:22.653Z,18.6
2016-07-30T01:03:32.650Z,18.5
2016-07-30T01:03:42.644Z,18.5
2016-07-30T01:03:52.641Z,18.6
2016-07-30T01:04:02.635Z,18.5
2016-07-30T01:04:12.630Z,18.6
2016-07-30T01:04:22.626Z,18.6
2016-07-30T01:04:32.620Z,18.5
2016-07-30T01:04:42.618Z,18.5
2016-07-30T01:04:52.612Z,18.5
2016-07-30T01:05:02.606Z,18.6
2016-07-30T01:05:12.602Z,18.6
2016-07-30T01:05:22.598Z,18.5
2016-07-30T01:05:32.593Z,18.5
2016-07-30T01:05:42.589Z,18.6
2016-07-30T01:05:52.587Z,18.5
2016-07-30T01:06:02.581Z,18.5
2016-07-30T01:06:12.576Z,18.5
2016-07-30T01:06:22.570Z,18.5
2016-07-30T01:06:32.566Z,18.6
2016-07-30T01:06:42.561Z,18.5
2016-07-30T01:06:52.557Z,18.5
2016-07-30T01:07:02.552Z,18.5
2016-07-30T01:07:12.547Z,18.6
2016-07-30T01:07:22.542Z,18.5
2016-07-30T01:07:32.538Z,18.5
2016-07-30T01:07:42.533Z,18.5
2016-07-30T01:07:52.529Z,18.5
2016-07-30T01:08:02.524Z,18.5
2016-07-30T01:08:12.520Z,18.5
2016-07-30T01:08:22.514Z,18.5
2016-07-30T01:08:32.510Z,18.5
2016-07-30T01:08:42.505Z,18.4
2016-07-30T01:08:52.501Z,18.5
2016-07-30T01:09:02.496Z,18.5
2016-07-30T01:09:12.492Z,18.5
2016-07-30T01:09:22.487Z,18.5
2016-07-30T01:09:32.481Z,18.5
2016-07-30T01:09:42.478Z,18.5
2016-07-30T01:09:52.473Z,18.5
2016-07-30T01:10:02.467Z,18.5
2016-07-30T01:10:12.464Z,18.5
2016-07-30T01:10:22.458Z,18.4
2016-07-30T01:10:32.458Z,18.5
2016-07-30T01:10:42.452Z,18.5
2016-07-30T01:10:52.445Z,18.5
2016-07-30T01:11:02.442Z,18.5
2016-07-30T01:11:12.436Z,18.5
2016-07-30T01:11:22.430Z,18.5
2016-07-30T01:11:32.426Z,18.5
2016-07-30T01:11:42.421Z,18.5
2016-07-30T01:11:52.418Z,18.5
2016-07-30T01:12:02.423Z,18.5
2016-07-30T01:12:12.408Z,18.5
2016-07-30T01:12:22.403Z,18.5
2016-07-30T01:12:32.398Z,18.5
2016-07-30T01:12:42.394Z,18.5
2016-07-30T01:12:52.389Z,18.5
2016-07-30T01:13:02.384Z,18.5
2016-07-30T01:13:12.379Z,18.5
2016-07-30T01:13:22.374Z,18.5
2016-07-30T01:13:32.370Z,18.5
2016-07-30T01:13:42.366Z,18.5
2016-07-30T01:13:52.360Z,18.5
2016-07-30T01:14:02.357Z,18.5
2016-07-30T01:14:12.354Z,18.5
2016-07-30T01:14:22.347Z,18.4
2016-07-30T01:14:32.343Z,18.4
2016-07-30T01:14:42.338Z,18.5
2016-07-30T01:14:52.332Z,18.4
2016-07-30T01:15:02.329Z,18.5
2016-07-30T01:15:12.325Z,18.5
2016-07-30T01:15:22.320Z,18.5
2016-07-30T01:15:32.315Z,18.5
2016-07-30T01:15:42.309Z,18.4
2016-07-30T01:15:52.307Z,18.5
2016-07-30T01:16:02.302Z,18.4
2016-07-30T01:16:12.296Z,18.4
2016-07-30T01:16:22.291Z,18.5
2016-07-30T01:16:32.284Z,18.4
2016-07-30T01:16:42.287Z,18.4
2016-07-30T01:16:52.278Z,18.5
2016-07-30T01:17:02.272Z,18.5
2016-07-30T01:17:12.268Z,18.4
2016-07-30T01:17:22.264Z,18.5
2016-07-30T01:17:32.261Z,18.5
2016-07-30T01:17:42.254Z,18.4
2016-07-30T01:17:52.249Z,18.5
2016-07-30T01:18:02.244Z,18.4
2016-07-30T01:18:12.241Z,18.5
2016-07-30T01:18:22.235Z,18.5
2016-07-30T01:18:32.231Z,18.4
2016-07-30T01:18:42.228Z,18.5
2016-07-30T01:18:52.223Z,18.4
2016-07-30T01:19:02.217Z,18.5
2016-07-30T01:19:12.212Z,18.4
2016-07-30T01:19:22.207Z,18.4
2016-07-30T01:19:32.203Z,18.4
2016-07-30T01:19:42.199Z,18.4
2016-07-30T01:19:52.195Z,18.4
2016-07-30T01:20:02.190Z,18.4
2016-07-30T01:20:12.185Z,18.4
2016-07-30T01:20:22.181Z,18.4
2016-07-30T01:20:32.175Z,18.4
2016-07-30T01:20:42.171Z,18.4
2016-07-30T01:20:52.165Z,18.5
2016-07-30T01:21:02.160Z,18.4
2016-07-30T01:21:12.155Z,18.3
2016-07-30T01:21:22.151Z,18.4
2016-07-30T01:21:32.147Z,18.4
2016-07-30T01:21:42.143Z,18.4
2016-07-30T01:21:52.138Z,18.4
2016-07-30T01:22:02.133Z,18.4
2016-07-30T01:22:12.133Z,18.3
2016-07-30T01:22:22.123Z,18.4
2016-07-30T01:22:32.118Z,18.4
2016-07-30T01:22:42.115Z,18.3
2016-07-30T01:22:52.111Z,18.4
2016-07-30T01:23:02.107Z,18.3
2016-07-30T01:23:12.100Z,18.4
2016-07-30T01:23:22.098Z,18.4
2016-07-30T01:23:32.093Z,18.4
2016-07-30T01:23:42.087Z,18.4
2016-07-30T01:23:52.082Z,18.3
2016-07-30T01:24:02.078Z,18.5
2016-07-30T01:24:12.073Z,18.3
2016-07-30T01:24:22.068Z,18.4
2016-07-30T01:24:32.062Z,18.3
2016-07-30T01:24:42.059Z,18.3
2016-07-30T01:24:52.055Z,18.5
2016-07-30T01:25:02.049Z,18.3
2016-07-30T01:25:12.045Z,18.4
2016-07-30T01:25:22.040Z,18.3
2016-07-30T01:25:32.035Z,18.3
2016-07-30T01:25:42.037Z,18.3
2016-07-30T01:25:52.026Z,18.3
2016-07-30T01:26:02.021Z,18.3
2016-07-30T01:26:12.018Z,18.3
2016-07-30T01:26:22.012Z,18.3
2016-07-30T01:26:32.008Z,18.3
2016-07-30T01:26:42.005Z,18.3
2016-07-30T01:26:51.999Z,18.4
2016-07-30T01:27:01.995Z,18.3
2016-07-30T01:27:11.989Z,18.4
2016-07-30T01:27:21.985Z,18.4
2016-07-30T01:27:31.982Z,18.4
2016-07-30T01:27:41.975Z,18.4
2016-07-30T01:27:51.971Z,18.3
2016-07-30T01:28:01.977Z,18.4
2016-07-30T01:28:11.961Z,18.3
2016-07-30T01:28:21.956Z,18.3
2016-07-30T01:28:31.950Z,18.4
2016-07-30T01:28:41.947Z,18.4
2016-07-30T01:28:51.943Z,18.3
2016-07-30T01:29:01.938Z,18.4
2016-07-30T01:29:11.933Z,18.3
2016-07-30T01:29:21.928Z,18.3
2016-07-30T01:29:31.923Z,18.3
2016-07-30T01:29:41.919Z,18.3
2016-07-30T01:29:51.914Z,18.3
2016-07-30T01:30:01.910Z,18.3
2016-07-30T01:30:11.906Z,18.4
2016-07-30T01:30:21.900Z,18.3
2016-07-30T01:30:31.896Z,18.3
2016-07-30T01:30:41.892Z,18.3
2016-07-30T01:30:51.887Z,18.3
2016-07-30T01:31:01.883Z,18.2
2016-07-30T01:31:11.878Z,18.3
2016-07-30T01:31:21.878Z,18.3
2016-07-30T01:31:31.868Z,18.2
2016-07-30T01:31:41.863Z,18.3
2016-07-30T01:31:51.859Z,18.3
2016-07-30T01:32:01.855Z,18.3
2016-07-30T01:32:11.850Z,18.3
2016-07-30T01:32:21.846Z,18.3
2016-07-30T01:32:31.840Z,18.3
2016-07-30T01:32:41.835Z,18.3
2016-07-30T01:32:51.831Z,18.3
2016-07-30T01:33:01.824Z,18.3
2016-07-30T01:33:11.821Z,18.3
2016-07-30T01:33:21.817Z,18.2
2016-07-30T01:33:31.813Z,18.3
2016-07-30T01:33:41.808Z,18.2
2016-07-30T01:33:51.802Z,18.3
2016-07-30T01:34:01.798Z,18.3
2016-07-30T01:34:11.794Z,18.2
2016-07-30T01:34:21.787Z,18.2
2016-07-30T01:34:31.784Z,18.3
2016-07-30T01:34:41.779Z,18.3
2016-07-30T01:34:51.774Z,18.3
2016-07-30T01:35:01.771Z,18.2
2016-07-30T01:35:11.766Z,18.2
2016-07-30T01:35:21.761Z,18.2
2016-07-30T01:35:31.756Z,18.2
2016-07-30T01:35:41.752Z,18.2
2016-07-30T01:35:51.747Z,18.2
2016-07-30T01:36:01.744Z,18.2
2016-07-30T01:36:11.738Z,18.3
2016-07-30T01:36:21.733Z,18.3
2016-07-30T01:36:31.728Z,18.2
2016-07-30T01:36:41.724Z,18.2
2016-07-30T01:36:51.720Z,18.3
2016-07-30T01:37:01.714Z,18.2
2016-07-30T01:37:11.709Z,18.2
2016-07-30T01:37:21.706Z,18.3
2016-07-30T01:37:31.699Z,18.2
2016-07-30T01:37:41.697Z,18.2
2016-07-30T01:37:51.690Z,18.3
2016-07-30T01:38:01.686Z,18.2
2016-07-30T01:38:11.681Z,18.2
2016-07-30T01:38:21.676Z,18.3
2016-07-30T01:38:31.673Z,18.3
2016-07-30T01:38:41.668Z,18.2
2016-07-30T01:38:51.663Z,18.3
2016-07-30T01:39:01.659Z,18.3
2016-07-30T01:39:11.654Z,18.3
2016-07-30T01:39:21.650Z,18.3
2016-07-30T01:39:31.645Z,18.3
2016-07-30T01:39:41.640Z,18.2
2016-07-30T01:39:51.635Z,18.2
2016-07-30T01:40:01.631Z,18.3
2016-07-30T01:40:11.626Z,18.3
2016-07-30T01:40:21.622Z,18.2
2016-07-30T01:40:31.617Z,18.2
2016-07-30T01:40:41.612Z,18.2
2016-07-30T01:40:51.607Z,18.2
2016-07-30T01:41:01.602Z,18.2
2016-07-30T01:41:11.598Z,18.3
2016-07-30T01:41:21.592Z,18.2
2016-07-30T01:41:31.588Z,18.2
2016-07-30T01:41:41.584Z,18.2
2016-07-30T01:41:51.579Z,18.2
2016-07-30T01:42:01.575Z,18.3
2016-07-30T01:42:11.569Z,18.3
2016-07-30T01:42:21.565Z,18.2
2016-07-30T01:42:31.560Z,18.3
2016-07-30T01:42:41.556Z,18.1
2016-07-30T01:42:51.550Z,18.1
2016-07-30T01:43:01.546Z,18.2
2016-07-30T01:43:11.541Z,18.2
2016-07-30T01:43:21.537Z,18.2
2016-07-30T01:43:31.533Z,18.2
2016-07-30T01:43:41.527Z,18.2
2016-07-30T01:43:51.523Z,18.2
2016-07-30T01:44:01.520Z,18.2
2016-07-30T01:44:11.513Z,18.1
2016-07-30T01:44:21.510Z,18.1
2016-07-30T01:44:31.503Z,18.1
2016-07-30T01:44:41.499Z,18.1
2016-07-30T01:44:51.495Z,18.2
2016-07-30T01:45:01.490Z,18.1
2016-07-30T01:45:11.486Z,18.1
2016-07-30T01:45:21.483Z,18.1
2016-07-30T01:45:31.476Z,18.1
2016-07-30T01:45:41.471Z,18.2
2016-07-30T01:45:51.466Z,18.1
2016-07-30T01:46:01.461Z,18.1
2016-07-30T01:46:11.457Z,18.1
2016-07-30T01:46:21.451Z,18.2
2016-07-30T01:46:31.447Z,18.2
2016-07-30T01:46:41.444Z,18.2
2016-07-30T01:46:51.439Z,18.1
2016-07-30T01:47:01.433Z,18.1
2016-07-30T01:47:11.429Z,18.2
2016-07-30T01:47:21.425Z,18.1
2016-07-30T01:47:31.422Z,18.1
2016-07-30T01:47:41.415Z,18.1
2016-07-30T01:47:51.410Z,18.2
2016-07-30T01:48:01.405Z,18.1
2016-07-30T01:48:11.407Z,18.1
2016-07-30T01:48:21.397Z,18.1
2016-07-30T01:48:31.392Z,18.2
2016-07-30T01:48:41.387Z,18.1
2016-07-30T01:48:51.383Z,18.1
2016-07-30T01:49:01.378Z,18.2
2016-07-30T01:49:11.373Z,18.1
2016-07-30T01:49:21.370Z,18
2016-07-30T01:49:31.363Z,18.1
2016-07-30T01:49:41.359Z,18.1
2016-07-30T01:49:51.354Z,18.1
2016-07-30T01:50:01.348Z,18.1
2016-07-30T01:50:11.346Z,18.1
2016-07-30T01:50:21.340Z,18.1
2016-07-30T01:50:31.336Z,18.1
2016-07-30T01:50:41.332Z,18.1
2016-07-30T01:50:51.327Z,18.1
2016-07-30T01:51:01.322Z,18.1
2016-07-30T01:51:11.320Z,18.1
2016-07-30T01:51:21.312Z,18
2016-07-30T01:51:31.313Z,18.1
2016-07-30T01:51:41.303Z,18.1
2016-07-30T01:51:51.299Z,18
2016-07-30T01:52:01.294Z,18.1
2016-07-30T01:52:11.289Z,18.1
2016-07-30T01:52:21.283Z,18
2016-07-30T01:52:31.281Z,18
2016-07-30T01:52:41.275Z,18
2016-07-30T01:52:51.271Z,18.1
2016-07-30T01:53:01.265Z,18
2016-07-30T01:53:11.261Z,18.1
2016-07-30T01:53:21.257Z,18.1
2016-07-30T01:53:31.250Z,18
2016-07-30T01:53:41.248Z,18
2016-07-30T01:53:51.241Z,18
2016-07-30T01:54:01.238Z,18.1
2016-07-30T01:54:11.234Z,18.1
2016-07-30T01:54:21.227Z,18
2016-07-30T01:54:31.223Z,18.1
2016-07-30T01:54:41.219Z,18
2016-07-30T01:54:51.214Z,18
2016-07-30T01:55:01.209Z,18
2016-07-30T01:55:11.204Z,17.9
2016-07-30T01:55:21.200Z,18
2016-07-30T01:55:31.196Z,18
2016-07-30T01:55:41.191Z,17.9
2016-07-30T01:55:51.186Z,18.1
2016-07-30T01:56:01.182Z,18
2016-07-30T01:56:11.177Z,17.9
2016-07-30T01:56:21.172Z,18.1
2016-07-30T01:56:31.166Z,17.9
2016-07-30T01:56:41.162Z,18.1
2016-07-30T01:56:51.159Z,18
2016-07-30T01:57:01.153Z,18
2016-07-30T01:57:11.149Z,18.1
2016-07-30T01:57:21.146Z,18
2016-07-30T01:57:31.140Z,18.1
2016-07-30T01:57:41.135Z,18
2016-07-30T01:57:51.128Z,18
2016-07-30T01:58:01.125Z,18.1
2016-07-30T01:58:11.121Z,18
2016-07-30T01:58:21.115Z,18
2016-07-30T01:58:31.111Z,18
2016-07-30T01:58:41.107Z,18
2016-07-30T01:58:51.101Z,18
2016-07-30T01:59:01.097Z,17.9
2016-07-30T01:59:11.092Z,18.1
2016-07-30T01:59:21.089Z,18
2016-07-30T01:59:31.084Z,18
2016-07-30T01:59:41.080Z,18
2016-07-30T01:59:51.075Z,17.9
2016-07-30T02:00:01.069Z,18
2016-07-30T02:00:11.064Z,18
2016-07-30T02:00:21.061Z,18
2016-07-30T02:00:31.056Z,18
2016-07-30T02:00:41.051Z,17.9
2016-07-30T02:00:51.046Z,18
2016-07-30T02:01:01.041Z,18
2016-07-30T02:01:11.041Z,18
2016-07-30T02:01:21.033Z,18
2016-07-30T02:01:31.026Z,17.9
2016-07-30T02:01:41.022Z,18.1
2016-07-30T02:01:51.019Z,18
2016-07-30T02:02:01.012Z,17.9
2016-07-30T02:02:11.008Z,17.9
2016-07-30T02:02:21.003Z,17.9
2016-07-30T02:02:30.999Z,18
2016-07-30T02:02:40.994Z,18
2016-07-30T02:02:50.988Z,18
2016-07-30T02:03:00.984Z,17.9
2016-07-30T02:03:10.979Z,18
2016-07-30T02:03:20.976Z,18
2016-07-30T02:03:30.972Z,18
2016-07-30T02:03:40.967Z,17.9
2016-07-30T02:03:50.962Z,17.9
2016-07-30T02:04:00.959Z,18
2016-07-30T02:04:10.953Z,17.9
2016-07-30T02:04:20.947Z,18
2016-07-30T02:04:30.941Z,17.9
2016-07-30T02:04:40.938Z,18
2016-07-30T02:04:50.934Z,17.9
2016-07-30T02:05:00.929Z,18
2016-07-30T02:05:10.924Z,18
2016-07-30T02:05:20.920Z,17.9
2016-07-30T02:05:30.914Z,18.1
2016-07-30T02:05:40.911Z,17.9
2016-07-30T02:05:50.904Z,18
2016-07-30T02:06:00.900Z,17.9
2016-07-30T02:06:10.896Z,18
2016-07-30T02:06:20.890Z,17.9
2016-07-30T02:06:30.886Z,17.9
2016-07-30T02:06:40.882Z,17.9
2016-07-30T02:06:50.881Z,17.9
2016-07-30T02:07:00.873Z,17.9
2016-07-30T02:07:10.867Z,17.9
2016-07-30T02:07:20.864Z,18
2016-07-30T02:07:30.858Z,17.9
2016-07-30T02:07:40.853Z,18
2016-07-30T02:07:50.850Z,17.9
2016-07-30T02:08:00.846Z,17.9
2016-07-30T02:08:10.841Z,17.9
2016-07-30T02:08:20.836Z,17.9
2016-07-30T02:08:30.831Z,17.9
2016-07-30T02:08:40.827Z,17.9
2016-07-30T02:08:50.822Z,18
2016-07-30T02:09:00.816Z,17.9
2016-07-30T02:09:10.811Z,18
2016-07-30T02:09:20.807Z,17.9
2016-07-30T02:09:30.800Z,17.9
2016-07-30T02:09:40.798Z,17.9
2016-07-30T02:09:50.793Z,17.9
2016-07-30T02:10:00.788Z,17.9
2016-07-30T02:10:10.784Z,17.9
2016-07-30T02:10:20.779Z,18
2016-07-30T02:10:30.774Z,17.9
2016-07-30T02:10:40.770Z,17.9
2016-07-30T02:10:50.764Z,17.9
2016-07-30T02:11:00.760Z,17.9
2016-07-30T02:11:10.755Z,17.9
2016-07-30T02:11:20.751Z,17.9
2016-07-30T02:11:30.745Z,17.9
2016-07-30T02:11:40.741Z,17.9
2016-07-30T02:11:50.738Z,17.9
2016-07-30T02:12:00.734Z,17.9
2016-07-30T02:12:10.727Z,17.9
2016-07-30T02:12:20.724Z,17.9
2016-07-30T02:12:30.716Z,17.9
2016-07-30T02:12:40.713Z,17.9
2016-07-30T02:12:50.708Z,17.9
2016-07-30T02:13:00.704Z,17.9
2016-07-30T02:13:10.700Z,17.9
2016-07-30T02:13:20.695Z,17.9
2016-07-30T02:13:30.690Z,17.9
2016-07-30T02:13:40.685Z,17.9